KSAD/SAD METAR and TAF weather

Enter ICAO airport designator
Station Type Date Time Source
KSAD METAR 2021/01/22 06:51 UTC NOAA

KSAD 220651Z AUTO 21003KT 10SM BKN065 09/04 A3004 RMK AO2 SLP154 T00890044 401890067


Station Type Date Time Source
KSAD Decoded METAR 2021/01/22 06:51 UTC NOAA

SAFFORD MUNICIPAL AIRPORT, AZ, United States (KSAD) 32-51N 109-38W 962M
Jan 22, 2021 - 01:51 AM EST / 2021.01.22 0651 UTC
Wind: from the SSW (210 degrees) at 3 MPH (3 KT):0
Visibility: 10 mile(s):0
Sky conditions: mostly cloudy
Temperature: 48.0 F (8.9 C)
Dew Point: 39.9 F (4.4 C)
Relative Humidity: 73%
Pressure (altimeter): 30.04 in. Hg (1017 hPa)
ob: KSAD 220651Z AUTO 21003KT 10SM BKN065 09/04 A3004 RMK AO2 SLP154 T00890044 401890067
cycle: 7

Station Type Date Time Source
KSAD TAF UTC NOAA

Error!

Example: see airport list